createdAt,value
2023-08-11T07:00:24.808Z,18.30
2023-08-11T07:01:25.849Z,18.45
2023-08-11T07:02:25.919Z,18.55
2023-08-11T07:03:25.948Z,18.60
2023-08-11T07:04:26.027Z,18.62
2023-08-11T07:05:26.066Z,18.58
2023-08-11T07:06:26.142Z,18.57
2023-08-11T07:07:26.255Z,18.63
2023-08-11T07:08:26.269Z,18.65
2023-08-11T07:09:26.432Z,18.72
2023-08-11T07:10:26.503Z,18.81
2023-08-11T07:11:26.605Z,18.85
2023-08-11T07:12:26.591Z,18.85
2023-08-11T07:13:26.813Z,18.94
2023-08-11T07:14:26.758Z,19.06
2023-08-11T07:15:26.857Z,19.08
2023-08-11T07:16:26.984Z,19.13
2023-08-11T07:17:27.040Z,19.18
2023-08-11T07:18:27.915Z,19.18
2023-08-11T07:19:27.154Z,19.04
2023-08-11T07:20:27.230Z,18.94
2023-08-11T07:21:27.314Z,19.00
2023-08-11T07:22:27.635Z,19.11
2023-08-11T07:23:27.503Z,19.18
2023-08-11T07:24:27.878Z,19.19
2023-08-11T07:25:27.606Z,19.23
2023-08-11T07:26:27.654Z,19.32
2023-08-11T07:27:27.875Z,19.46
2023-08-11T07:28:27.870Z,19.56
2023-08-11T07:29:27.954Z,19.50
2023-08-11T07:30:28.026Z,19.41
2023-08-11T07:31:28.117Z,19.37
2023-08-11T07:32:28.307Z,19.33
2023-08-11T07:33:28.306Z,19.39
2023-08-11T07:34:28.501Z,19.44
2023-08-11T07:35:28.423Z,19.51
2023-08-11T07:36:28.547Z,19.59
2023-08-11T07:37:28.591Z,19.47
2023-08-11T07:38:28.687Z,19.43
2023-08-11T07:39:28.753Z,19.44
2023-08-11T07:40:29.570Z,19.54
2023-08-11T07:41:28.932Z,19.58
2023-08-11T07:42:29.005Z,19.59
2023-08-11T07:43:30.869Z,19.61
2023-08-11T07:44:31.626Z,19.62
2023-08-11T07:45:29.928Z,19.59
2023-08-11T07:46:29.281Z,19.63
2023-08-11T07:47:29.321Z,19.68
2023-08-11T07:48:29.353Z,19.71
2023-08-11T07:49:30.413Z,19.74
2023-08-11T07:50:29.551Z,19.78
2023-08-11T07:51:29.640Z,19.83
2023-08-11T07:52:29.721Z,19.91
2023-08-11T07:53:29.873Z,19.92
2023-08-11T07:54:30.010Z,19.95
2023-08-11T07:55:29.933Z,19.99
2023-08-11T07:56:30.575Z,20.02
2023-08-11T07:57:30.121Z,20.10
2023-08-11T07:58:30.157Z,20.18
2023-08-11T07:59:30.317Z,20.26
2023-08-11T08:00:30.438Z,20.41
2023-08-11T08:01:30.598Z,20.52
2023-08-11T08:02:30.535Z,20.64
2023-08-11T08:03:30.695Z,20.72
2023-08-11T08:04:30.670Z,20.79
2023-08-11T08:05:31.423Z,20.82
2023-08-11T08:06:30.835Z,20.84
2023-08-11T08:07:30.926Z,20.87
2023-08-11T08:08:30.991Z,20.92
2023-08-11T08:09:31.244Z,20.99
2023-08-11T08:10:31.152Z,21.06
2023-08-11T08:11:31.375Z,21.09
2023-08-11T08:12:31.960Z,21.06
2023-08-11T08:13:31.401Z,21.06
2023-08-11T08:14:31.487Z,21.07
2023-08-11T08:15:31.570Z,21.06
2023-08-11T08:16:31.620Z,21.13
2023-08-11T08:17:31.853Z,21.19
2023-08-11T08:18:31.804Z,21.17
2023-08-11T08:19:31.884Z,21.14
2023-08-11T08:20:31.944Z,21.16
2023-08-11T08:21:32.041Z,21.21
2023-08-11T08:22:32.118Z,21.28
2023-08-11T08:23:32.233Z,21.37
2023-08-11T08:24:33.689Z,21.43
2023-08-11T08:25:32.368Z,21.49
2023-08-11T08:26:32.619Z,21.53
2023-08-11T08:27:32.726Z,21.59
2023-08-11T08:28:34.418Z,21.61
2023-08-11T08:29:33.584Z,21.71
2023-08-11T08:30:33.180Z,22.02
2023-08-11T08:31:33.025Z,22.39
2023-08-11T08:32:33.072Z,22.85
2023-08-11T08:33:33.997Z,23.61
2023-08-11T08:34:33.125Z,24.10
2023-08-11T08:35:33.177Z,24.57
2023-08-11T08:36:33.307Z,24.76
2023-08-11T08:37:33.601Z,24.95
2023-08-11T08:38:34.307Z,25.42
2023-08-11T08:39:33.579Z,25.61
2023-08-11T08:40:33.633Z,25.50
2023-08-11T08:41:34.192Z,25.38
2023-08-11T08:42:33.748Z,25.40
2023-08-11T08:43:33.993Z,25.42
2023-08-11T08:44:33.879Z,25.42
2023-08-11T08:45:34.036Z,25.15
2023-08-11T08:46:34.050Z,24.85
2023-08-11T08:47:34.369Z,24.57
2023-08-11T08:48:34.230Z,24.35
2023-08-11T08:49:34.418Z,24.24
2023-08-11T08:50:34.416Z,24.08
2023-08-11T08:51:34.613Z,23.95
2023-08-11T08:52:34.622Z,23.79
2023-08-11T08:53:34.992Z,23.70
2023-08-11T08:54:34.793Z,23.61
2023-08-11T08:55:34.871Z,23.60
2023-08-11T08:56:34.919Z,23.65
2023-08-11T08:57:35.101Z,23.68
2023-08-11T08:58:36.210Z,23.72
2023-08-11T08:59:35.157Z,23.75
2023-08-11T09:00:35.335Z,23.69
2023-08-11T09:01:35.358Z,23.61
2023-08-11T09:02:36.164Z,23.63
2023-08-11T09:03:35.575Z,23.61
2023-08-11T09:04:35.716Z,23.66
2023-08-11T09:05:35.604Z,23.72
2023-08-11T09:06:35.737Z,23.72
2023-08-11T09:07:35.814Z,23.79
2023-08-11T09:08:36.088Z,23.73
2023-08-11T09:09:35.958Z,23.79
2023-08-11T09:10:36.104Z,23.85
2023-08-11T09:11:36.113Z,23.88
2023-08-11T09:12:36.426Z,23.91
2023-08-11T09:13:36.284Z,24.00
2023-08-11T09:14:36.341Z,24.24
2023-08-11T09:15:36.422Z,24.47
2023-08-11T09:16:36.571Z,25.08
2023-08-11T09:17:36.679Z,25.87
2023-08-11T09:18:36.710Z,26.60
2023-08-11T09:19:37.558Z,27.10
2023-08-11T09:20:38.690Z,27.34
2023-08-11T09:21:37.092Z,27.63
2023-08-11T09:22:37.030Z,27.79
2023-08-11T09:23:37.239Z,28.04
2023-08-11T09:24:37.150Z,28.15
2023-08-11T09:25:37.365Z,28.40
2023-08-11T09:26:37.339Z,28.64
2023-08-11T09:27:37.591Z,28.71
2023-08-11T09:28:37.518Z,29.02
2023-08-11T09:29:37.662Z,29.31
2023-08-11T09:30:37.654Z,29.41
2023-08-11T09:31:37.810Z,29.52
2023-08-11T09:32:37.881Z,29.67
2023-08-11T09:33:37.927Z,28.85
2023-08-11T09:34:37.966Z,28.30
2023-08-11T09:35:38.092Z,27.96
2023-08-11T09:36:38.143Z,28.15
2023-08-11T09:37:38.305Z,28.49
2023-08-11T09:38:38.294Z,28.80
2023-08-11T09:39:38.593Z,28.89
2023-08-11T09:40:38.466Z,28.83
2023-08-11T09:41:38.614Z,28.70
2023-08-11T09:42:38.643Z,28.98
2023-08-11T09:43:38.785Z,29.06
2023-08-11T09:44:38.841Z,29.08
2023-08-11T09:45:39.472Z,29.46
2023-08-11T09:46:38.969Z,29.92
2023-08-11T09:47:39.029Z,30.13
2023-08-11T09:48:40.036Z,30.60
2023-08-11T09:49:39.330Z,30.89
2023-08-11T09:50:41.241Z,31.26
2023-08-11T09:51:39.397Z,31.13
2023-08-11T09:52:39.516Z,31.38
2023-08-11T09:53:39.577Z,31.44
2023-08-11T09:54:39.631Z,31.35
2023-08-11T09:55:39.720Z,31.69
2023-08-11T09:56:39.844Z,32.06
2023-08-11T09:57:39.922Z,32.29
2023-08-11T09:58:40.030Z,32.55
2023-08-11T09:59:40.825Z,32.82
2023-08-11T10:00:40.715Z,33.00
2023-08-11T10:01:40.246Z,33.07
2023-08-11T10:02:40.615Z,32.60
2023-08-11T10:03:40.521Z,32.47
2023-08-11T10:04:40.557Z,32.21
2023-08-11T10:05:41.559Z,31.89
2023-08-11T10:06:41.864Z,31.78
2023-08-11T10:07:40.751Z,32.04
2023-08-11T10:08:40.873Z,32.07
2023-08-11T10:09:40.920Z,32.08
2023-08-11T10:10:41.070Z,32.19
2023-08-11T10:11:41.121Z,32.10
2023-08-11T10:12:41.316Z,32.26
2023-08-11T10:13:41.281Z,32.22
2023-08-11T10:14:41.416Z,32.33
2023-08-11T10:15:41.487Z,32.67
2023-08-11T10:16:41.677Z,33.07
2023-08-11T10:17:41.720Z,33.47
2023-08-11T10:18:42.676Z,33.66
2023-08-11T10:19:41.848Z,33.76
2023-08-11T10:20:41.959Z,33.86
2023-08-11T10:21:42.978Z,33.57
2023-08-11T10:22:42.098Z,33.23
2023-08-11T10:23:42.279Z,33.21
2023-08-11T10:24:47.227Z,33.15
2023-08-11T10:25:42.388Z,32.93
2023-08-11T10:26:43.189Z,32.89
2023-08-11T10:27:42.695Z,33.21
2023-08-11T10:28:42.802Z,33.53
2023-08-11T10:29:42.705Z,33.91
2023-08-11T10:30:43.754Z,33.72
2023-08-11T10:31:43.063Z,33.71
2023-08-11T10:32:43.194Z,33.95
2023-08-11T10:33:43.033Z,33.42
2023-08-11T10:34:43.663Z,33.66
2023-08-11T10:35:43.280Z,34.00
2023-08-11T10:36:44.524Z,34.34
2023-08-11T10:37:43.340Z,34.70
2023-08-11T10:38:43.463Z,34.53
2023-08-11T10:39:44.093Z,33.32
2023-08-11T10:40:43.576Z,32.35
2023-08-11T10:41:45.502Z,32.45
2023-08-11T10:42:45.606Z,31.75
2023-08-11T10:43:43.815Z,31.56
2023-08-11T10:44:43.895Z,31.75
2023-08-11T10:45:44.129Z,32.18
2023-08-11T10:46:44.113Z,31.76
2023-08-11T10:47:44.191Z,31.47
2023-08-11T10:48:44.264Z,32.04
2023-08-11T10:49:44.479Z,32.25
2023-08-11T10:50:44.445Z,32.75
2023-08-11T10:51:45.995Z,33.26
2023-08-11T10:52:44.901Z,33.44
2023-08-11T10:53:44.664Z,33.69
2023-08-11T10:54:44.794Z,33.69
2023-08-11T10:55:44.882Z,33.69
2023-08-11T10:56:45.233Z,33.38
2023-08-11T10:57:45.017Z,33.15
2023-08-11T10:58:45.142Z,33.44
2023-08-11T10:59:45.183Z,33.41
2023-08-11T11:00:46.731Z,32.82
2023-08-11T11:01:45.422Z,31.66
2023-08-11T11:02:46.265Z,31.46
2023-08-11T11:03:47.733Z,31.96
2023-08-11T11:04:45.686Z,32.38
2023-08-11T11:05:45.774Z,33.07
2023-08-11T11:06:45.792Z,33.79
2023-08-11T11:07:45.856Z,33.21
2023-08-11T11:08:45.999Z,32.77
2023-08-11T11:09:46.640Z,32.51
2023-08-11T11:10:50.591Z,32.93
2023-08-11T11:11:46.857Z,32.97
2023-08-11T11:12:46.313Z,33.18
2023-08-11T11:13:46.311Z,33.73
2023-08-11T11:14:46.408Z,34.22
2023-08-11T11:15:46.521Z,34.06
2023-08-11T11:16:46.619Z,33.28
2023-08-11T11:17:46.702Z,31.47
2023-08-11T11:18:46.699Z,31.34
2023-08-11T11:19:46.732Z,32.01
2023-08-11T11:20:46.848Z,32.45
2023-08-11T11:21:46.927Z,32.88
2023-08-11T11:22:47.020Z,33.44
2023-08-11T11:23:47.042Z,33.72
2023-08-11T11:24:47.155Z,33.98
2023-08-11T11:25:47.296Z,34.00
2023-08-11T11:26:47.347Z,33.65
2023-08-11T11:27:48.307Z,33.14
2023-08-11T11:28:47.545Z,33.57
2023-08-11T11:29:47.686Z,34.15
2023-08-11T11:30:47.709Z,34.61
2023-08-11T11:31:47.829Z,34.72
2023-08-11T11:32:47.957Z,33.94
2023-08-11T11:33:49.287Z,33.90
2023-08-11T11:34:48.053Z,33.45
2023-08-11T11:35:48.167Z,33.78
2023-08-11T11:36:48.345Z,33.49
2023-08-11T11:37:48.293Z,33.41
2023-08-11T11:38:48.402Z,33.94
2023-08-11T11:39:48.499Z,34.44
2023-08-11T11:40:48.719Z,34.88
2023-08-11T11:41:48.736Z,35.07
2023-08-11T11:42:48.772Z,34.97
2023-08-11T11:43:48.816Z,35.02
2023-08-11T11:44:48.917Z,35.11
2023-08-11T11:45:48.981Z,35.48
2023-08-11T11:46:49.157Z,35.58
2023-08-11T11:47:49.222Z,35.52
2023-08-11T11:48:49.262Z,34.77
2023-08-11T11:49:49.540Z,34.78
2023-08-11T11:50:49.452Z,35.10
2023-08-11T11:51:49.548Z,35.37
2023-08-11T11:52:49.711Z,35.59
2023-08-11T11:53:49.746Z,35.74
2023-08-11T11:54:49.918Z,35.66
2023-08-11T11:55:49.895Z,35.94
2023-08-11T11:57:02.343Z,36.17
2023-08-11T11:57:50.157Z,34.94
2023-08-11T11:58:52.187Z,34.62
2023-08-11T11:59:50.171Z,35.10
2023-08-11T12:00:50.285Z,35.47
2023-08-11T12:01:51.141Z,35.78
2023-08-11T12:02:50.579Z,36.12
2023-08-11T12:04:12.330Z,35.90
2023-08-11T12:04:50.844Z,35.58
2023-08-11T12:05:50.685Z,35.74
2023-08-11T12:06:50.904Z,35.97
2023-08-11T12:07:50.940Z,36.15
2023-08-11T12:08:50.969Z,36.20
2023-08-11T12:09:51.064Z,35.75
2023-08-11T12:10:51.115Z,34.25
2023-08-11T12:11:51.149Z,34.40
2023-08-11T12:12:51.339Z,34.44
2023-08-11T12:13:51.352Z,34.80
2023-08-11T12:14:52.017Z,34.34
2023-08-11T12:15:51.511Z,34.30
2023-08-11T12:16:51.646Z,34.54
2023-08-11T12:17:51.899Z,34.50
2023-08-11T12:18:51.762Z,34.37
2023-08-11T12:19:52.141Z,34.09
2023-08-11T12:20:51.930Z,34.19
2023-08-11T12:21:52.014Z,34.12
2023-08-11T12:22:52.075Z,34.15
2023-08-11T12:23:52.161Z,34.17
2023-08-11T12:24:52.413Z,34.53
2023-08-11T12:25:52.365Z,34.53
2023-08-11T12:26:52.587Z,34.15
2023-08-11T12:27:53.194Z,33.16
2023-08-11T12:28:52.843Z,32.74
2023-08-11T12:29:52.728Z,32.21
2023-08-11T12:30:52.798Z,32.69
2023-08-11T12:31:52.817Z,33.26
2023-08-11T12:32:53.149Z,33.86
2023-08-11T12:33:53.165Z,33.14
2023-08-11T12:34:53.019Z,33.32
2023-08-11T12:35:53.390Z,33.71
2023-08-11T12:36:54.293Z,33.75
2023-08-11T12:37:53.292Z,33.65
2023-08-11T12:38:54.636Z,32.33
2023-08-11T12:39:53.443Z,32.15
2023-08-11T12:40:53.547Z,32.55
2023-08-11T12:41:53.648Z,33.39
2023-08-11T12:42:53.730Z,33.76
2023-08-11T12:43:53.824Z,33.07
2023-08-11T12:44:53.902Z,32.59
2023-08-11T12:45:54.234Z,32.78
2023-08-11T12:46:54.058Z,33.12
2023-08-11T12:47:54.884Z,33.56
2023-08-11T12:48:54.283Z,34.39
2023-08-11T12:49:54.310Z,35.22
2023-08-11T12:50:54.425Z,35.58
2023-08-11T12:51:54.551Z,35.89
2023-08-11T12:52:54.599Z,36.19
2023-08-11T12:53:54.735Z,36.73
2023-08-11T12:54:54.798Z,36.25
2023-08-11T12:55:54.859Z,35.63
2023-08-11T12:56:54.985Z,34.53
2023-08-11T12:57:54.993Z,33.18
2023-08-11T12:58:55.148Z,33.00
2023-08-11T12:59:55.149Z,33.37
2023-08-11T13:00:55.275Z,34.05
2023-08-11T13:01:55.452Z,34.05
2023-08-11T13:02:55.448Z,34.32
2023-08-11T13:03:55.542Z,33.84
2023-08-11T13:04:55.647Z,34.25
2023-08-11T13:05:56.538Z,34.32
2023-08-11T13:06:57.418Z,34.49
2023-08-11T13:07:55.843Z,34.15
2023-08-11T13:08:56.087Z,34.61
2023-08-11T13:09:56.012Z,35.16
2023-08-11T13:10:56.131Z,35.56
2023-08-11T13:11:56.884Z,35.70
2023-08-11T13:12:56.377Z,35.82
2023-08-11T13:13:56.335Z,35.43
2023-08-11T13:14:56.406Z,35.72
2023-08-11T13:15:56.619Z,36.23
2023-08-11T13:16:56.672Z,36.37
2023-08-11T13:17:57.314Z,35.43
2023-08-11T13:18:56.800Z,34.46
2023-08-11T13:19:56.922Z,34.82
2023-08-11T13:20:56.935Z,35.48
2023-08-11T13:21:57.665Z,36.32
2023-08-11T13:22:57.103Z,36.87
2023-08-11T13:23:57.252Z,36.54
2023-08-11T13:24:57.279Z,36.81
2023-08-11T13:25:58.284Z,36.72
2023-08-11T13:26:58.272Z,37.05
2023-08-11T13:27:57.551Z,36.60
2023-08-11T13:28:57.677Z,35.94
2023-08-11T13:29:57.692Z,35.96
2023-08-11T13:30:58.095Z,35.50
2023-08-11T13:31:57.947Z,35.43
2023-08-11T13:32:58.065Z,34.81
2023-08-11T13:33:58.069Z,34.06
2023-08-11T13:34:58.149Z,34.54
2023-08-11T13:35:58.234Z,34.31
2023-08-11T13:36:58.315Z,34.28
2023-08-11T13:37:58.432Z,34.92
2023-08-11T13:38:58.481Z,34.73
2023-08-11T13:39:58.649Z,34.84
2023-08-11T13:40:58.656Z,35.22
2023-08-11T13:41:58.790Z,34.75
2023-08-11T13:42:58.838Z,34.46
2023-08-11T13:43:58.923Z,34.43
2023-08-11T13:44:59.139Z,34.70
2023-08-11T13:45:59.115Z,34.62
2023-08-11T13:46:59.232Z,35.02
2023-08-11T13:47:59.299Z,35.22
2023-08-11T13:48:59.381Z,35.11
2023-08-11T13:49:59.559Z,34.69
2023-08-11T13:50:59.838Z,33.59
2023-08-11T13:51:59.653Z,33.29
2023-08-11T13:52:59.813Z,34.22
2023-08-11T13:54:00.019Z,34.59
2023-08-11T13:54:59.876Z,35.31
2023-08-11T13:55:59.961Z,36.05
2023-08-11T13:57:00.028Z,36.46
2023-08-11T13:58:00.127Z,36.12
2023-08-11T13:59:00.251Z,36.03
2023-08-11T14:00:00.364Z,36.19
2023-08-11T14:01:00.382Z,36.38
2023-08-11T14:02:00.452Z,36.54
2023-08-11T14:03:00.550Z,36.25
2023-08-11T14:04:00.942Z,36.53
2023-08-11T14:05:00.693Z,36.49
2023-08-11T14:06:00.757Z,36.44
2023-08-11T14:07:13.141Z,35.96
2023-08-11T14:08:00.898Z,36.65
2023-08-11T14:09:00.977Z,36.56
2023-08-11T14:10:01.086Z,36.37
2023-08-11T14:11:01.197Z,35.56
2023-08-11T14:12:01.258Z,35.75
2023-08-11T14:13:01.363Z,35.92
2023-08-11T14:14:01.432Z,35.53
2023-08-11T14:15:01.493Z,35.28
2023-08-11T14:16:01.620Z,34.97
2023-08-11T14:17:01.689Z,35.43
2023-08-11T14:18:01.815Z,35.36
2023-08-11T14:19:01.895Z,34.80
2023-08-11T14:20:01.893Z,34.69
2023-08-11T14:21:01.995Z,34.17
2023-08-11T14:22:02.032Z,33.04
2023-08-11T14:23:02.173Z,32.52
2023-08-11T14:24:02.236Z,32.82
2023-08-11T14:25:02.393Z,33.56
2023-08-11T14:26:02.390Z,34.06
2023-08-11T14:27:03.624Z,33.78
2023-08-11T14:28:03.935Z,33.32
2023-08-11T14:29:02.667Z,33.29
2023-08-11T14:30:02.733Z,32.30
2023-08-11T14:31:02.830Z,32.48
2023-08-11T14:32:18.770Z,33.23
2023-08-11T14:33:03.001Z,33.51
2023-08-11T14:34:03.194Z,33.84
2023-08-11T14:35:04.173Z,34.34
2023-08-11T14:36:03.769Z,34.21
2023-08-11T14:37:03.254Z,33.26
2023-08-11T14:38:03.388Z,32.37
2023-08-11T14:39:03.540Z,31.57
2023-08-11T14:40:03.581Z,31.47
2023-08-11T14:41:03.640Z,30.69
2023-08-11T14:42:03.771Z,30.53
2023-08-11T14:43:03.928Z,30.70
2023-08-11T14:44:03.874Z,30.57
2023-08-11T14:45:04.029Z,30.13
2023-08-11T14:46:03.993Z,29.63
2023-08-11T14:47:04.105Z,29.55
2023-08-11T14:48:04.307Z,29.68
2023-08-11T14:49:04.259Z,29.68
2023-08-11T14:50:04.329Z,29.68
2023-08-11T14:51:04.379Z,29.58
2023-08-11T14:52:05.344Z,29.55
2023-08-11T14:53:04.706Z,29.64
2023-08-11T14:54:04.646Z,29.68
2023-08-11T14:55:04.778Z,29.65
2023-08-11T14:56:04.866Z,29.64
2023-08-11T14:57:05.031Z,29.60
2023-08-11T14:58:05.046Z,29.43
2023-08-11T14:59:05.092Z,29.37
2023-08-11T15:00:05.205Z,29.33
2023-08-11T15:01:05.262Z,29.37
2023-08-11T15:02:05.349Z,29.31
2023-08-11T15:03:05.523Z,29.28
2023-08-11T15:04:05.444Z,29.37
2023-08-11T15:05:06.441Z,29.55
2023-08-11T15:06:07.006Z,29.53
2023-08-11T15:07:05.957Z,29.36
2023-08-11T15:08:05.804Z,29.30
2023-08-11T15:09:05.960Z,29.24
2023-08-11T15:10:05.966Z,29.33
2023-08-11T15:11:06.115Z,29.30
2023-08-11T15:12:06.195Z,29.34
2023-08-11T15:13:06.844Z,29.36
2023-08-11T15:14:06.435Z,29.36
2023-08-11T15:15:06.580Z,29.31
2023-08-11T15:16:06.539Z,29.21
2023-08-11T15:17:06.672Z,28.98
2023-08-11T15:18:06.714Z,29.09
2023-08-11T15:19:06.764Z,29.24
2023-08-11T15:20:06.870Z,29.33
2023-08-11T15:21:06.910Z,29.39
2023-08-11T15:22:06.978Z,29.36
2023-08-11T15:23:07.056Z,29.34
2023-08-11T15:24:07.212Z,29.30
2023-08-11T15:25:07.185Z,29.18
2023-08-11T15:26:07.312Z,29.15
2023-08-11T15:27:07.354Z,29.09
2023-08-11T15:28:07.440Z,29.11
2023-08-11T15:29:07.533Z,29.11
2023-08-11T15:30:07.634Z,29.19
2023-08-11T15:31:07.730Z,29.19
2023-08-11T15:32:07.822Z,29.26
2023-08-11T15:33:08.384Z,29.34
2023-08-11T15:34:07.936Z,29.34
2023-08-11T15:35:08.867Z,29.26
2023-08-11T15:36:08.166Z,29.12
2023-08-11T15:37:08.190Z,29.15
2023-08-11T15:38:08.272Z,29.21
2023-08-11T15:39:09.446Z,29.09
2023-08-11T15:40:08.465Z,29.08
2023-08-11T15:41:08.510Z,29.08
2023-08-11T15:42:08.928Z,29.02
2023-08-11T15:43:08.675Z,29.04
2023-08-11T15:44:08.781Z,29.06
2023-08-11T15:45:08.828Z,29.00
2023-08-11T15:46:08.924Z,28.98
2023-08-11T15:47:08.988Z,28.96
2023-08-11T15:48:09.081Z,28.85
2023-08-11T15:49:09.121Z,28.90
2023-08-11T15:50:09.188Z,28.95
2023-08-11T15:51:09.857Z,28.96
2023-08-11T15:52:09.638Z,29.00
2023-08-11T15:53:09.519Z,29.08
2023-08-11T15:54:09.533Z,29.16
2023-08-11T15:55:09.662Z,29.16
2023-08-11T15:56:09.692Z,28.98
2023-08-11T15:57:09.913Z,29.05
2023-08-11T15:58:09.876Z,28.98
2023-08-11T15:59:09.946Z,28.88
2023-08-11T16:00:10.112Z,28.92
2023-08-11T16:01:10.153Z,28.92
2023-08-11T16:02:11.120Z,28.83
2023-08-11T16:03:11.448Z,28.73
2023-08-11T16:04:10.432Z,28.67
2023-08-11T16:05:10.436Z,28.52
2023-08-11T16:06:10.555Z,28.54
2023-08-11T16:07:10.607Z,28.52
2023-08-11T16:08:10.726Z,28.54
2023-08-11T16:09:10.759Z,28.51
2023-08-11T16:10:10.860Z,28.54
2023-08-11T16:11:10.956Z,28.62
2023-08-11T16:12:11.362Z,28.64
2023-08-11T16:13:11.474Z,28.58
2023-08-11T16:14:11.218Z,28.40
2023-08-11T16:15:11.289Z,28.34
2023-08-11T16:16:11.627Z,28.36
2023-08-11T16:17:11.513Z,28.44
2023-08-11T16:18:11.593Z,28.44
2023-08-11T16:19:11.602Z,28.46
2023-08-11T16:20:11.746Z,28.52
2023-08-11T16:21:11.789Z,28.55
2023-08-11T16:22:12.207Z,28.55
2023-08-11T16:23:12.062Z,28.56
2023-08-11T16:24:12.023Z,28.67
2023-08-11T16:25:12.080Z,28.67
2023-08-11T16:26:12.170Z,28.43
2023-08-11T16:27:12.272Z,28.39
2023-08-11T16:28:12.352Z,28.46
2023-08-11T16:29:12.466Z,28.49
2023-08-11T16:30:12.490Z,28.51
2023-08-11T16:31:12.643Z,28.54
2023-08-11T16:32:12.863Z,28.55
2023-08-11T16:33:12.769Z,28.67
2023-08-11T16:34:12.788Z,28.70
2023-08-11T16:35:13.829Z,28.74
2023-08-11T16:36:12.992Z,28.71
2023-08-11T16:37:13.064Z,28.52
2023-08-11T16:38:13.127Z,28.46
2023-08-11T16:39:13.227Z,28.55
2023-08-11T16:40:13.304Z,28.61
2023-08-11T16:41:13.377Z,28.67
2023-08-11T16:42:13.728Z,28.56
2023-08-11T16:43:13.572Z,28.49
2023-08-11T16:44:13.645Z,28.31
2023-08-11T16:45:14.229Z,28.22
2023-08-11T16:46:13.830Z,28.27
2023-08-11T16:47:13.923Z,28.31
2023-08-11T16:48:14.054Z,28.51
2023-08-11T16:49:14.096Z,28.66
2023-08-11T16:50:14.126Z,28.66
2023-08-11T16:51:14.231Z,28.66
2023-08-11T16:52:14.306Z,28.81
2023-08-11T16:53:14.377Z,29.04
2023-08-11T16:54:15.017Z,29.15
2023-08-11T16:55:14.500Z,29.36
2023-08-11T16:56:14.612Z,29.39
2023-08-11T16:57:14.694Z,29.37
2023-08-11T16:58:14.760Z,29.51
2023-08-11T16:59:14.897Z,29.68
2023-08-11T17:00:14.970Z,29.87
2023-08-11T17:01:15.020Z,29.97
2023-08-11T17:02:15.136Z,30.19
2023-08-11T17:03:15.281Z,29.92
2023-08-11T17:04:15.324Z,29.31
2023-08-11T17:05:16.236Z,29.33
2023-08-11T17:06:15.435Z,29.57
2023-08-11T17:07:15.531Z,29.89
2023-08-11T17:08:15.723Z,30.70
2023-08-11T17:09:15.735Z,31.06
2023-08-11T17:10:15.814Z,30.89
2023-08-11T17:11:15.857Z,30.76
2023-08-11T17:12:15.952Z,30.38
2023-08-11T17:13:16.033Z,30.23
2023-08-11T17:14:16.160Z,29.76
2023-08-11T17:15:16.351Z,29.08
2023-08-11T17:16:16.452Z,28.90
2023-08-11T17:17:16.437Z,28.77
2023-08-11T17:18:16.444Z,28.61
2023-08-11T17:19:16.522Z,28.52
2023-08-11T17:20:16.680Z,28.52
2023-08-11T17:21:16.726Z,28.48
2023-08-11T17:22:16.798Z,28.31
2023-08-11T17:23:17.775Z,28.18
2023-08-11T17:24:16.976Z,28.07
2023-08-11T17:25:17.102Z,28.11
2023-08-11T17:26:17.190Z,28.21
2023-08-11T17:27:17.207Z,28.33
2023-08-11T17:28:17.261Z,28.24
2023-08-11T17:29:17.408Z,28.03
2023-08-11T17:30:17.494Z,27.82
2023-08-11T17:31:17.644Z,27.57
2023-08-11T17:32:17.764Z,27.36
2023-08-11T17:33:17.772Z,27.13
2023-08-11T17:34:17.798Z,26.89
2023-08-11T17:35:17.930Z,26.73
2023-08-11T17:36:17.987Z,26.58
2023-08-11T17:37:18.043Z,26.45
2023-08-11T17:38:18.136Z,26.30
2023-08-11T17:39:18.261Z,26.18
2023-08-11T17:40:18.423Z,26.06
2023-08-11T17:41:20.260Z,25.99
2023-08-11T17:42:19.405Z,25.90
2023-08-11T17:43:18.537Z,25.82
2023-08-11T17:44:18.667Z,25.73
2023-08-11T17:45:18.695Z,25.69
2023-08-11T17:46:18.877Z,25.65
2023-08-11T17:47:19.058Z,25.61
2023-08-11T17:48:19.196Z,25.64
2023-08-11T17:49:19.187Z,25.67
2023-08-11T17:50:19.156Z,25.75
2023-08-11T17:51:19.328Z,25.79
2023-08-11T17:52:19.433Z,25.67
2023-08-11T17:53:21.307Z,25.54
2023-08-11T17:54:19.513Z,25.43
2023-08-11T17:55:19.865Z,25.36
2023-08-11T17:56:19.715Z,25.33
2023-08-11T17:57:20.013Z,25.32
2023-08-11T17:58:19.859Z,25.33
2023-08-11T17:59:19.904Z,25.32
2023-08-11T18:00:19.990Z,25.27
2023-08-11T18:01:20.117Z,25.24
2023-08-11T18:02:20.206Z,25.18
2023-08-11T18:03:20.343Z,25.13
2023-08-11T18:04:20.353Z,25.08
2023-08-11T18:05:20.383Z,25.02
2023-08-11T18:06:20.514Z,24.99
2023-08-11T18:07:20.594Z,24.95
2023-08-11T18:08:20.634Z,24.90
2023-08-11T18:09:20.745Z,24.85
2023-08-11T18:10:20.844Z,24.80
2023-08-11T18:11:20.886Z,24.73
2023-08-11T18:12:21.318Z,24.69
2023-08-11T18:13:21.085Z,24.62
2023-08-11T18:14:21.217Z,24.58
2023-08-11T18:15:21.259Z,24.53
2023-08-11T18:16:21.374Z,24.50
2023-08-11T18:17:21.527Z,24.46
2023-08-11T18:18:21.540Z,24.39
2023-08-11T18:19:21.633Z,24.34
2023-08-11T18:20:21.729Z,24.28
2023-08-11T18:21:21.834Z,24.24
2023-08-11T18:22:21.951Z,24.20
2023-08-11T18:23:21.966Z,24.13
2023-08-11T18:24:22.795Z,24.08
2023-08-11T18:25:22.135Z,24.00
2023-08-11T18:26:22.169Z,23.93
2023-08-11T18:27:22.259Z,23.87
2023-08-11T18:28:22.446Z,23.84
2023-08-11T18:29:22.467Z,23.78
2023-08-11T18:30:22.507Z,23.72
2023-08-11T18:31:22.628Z,23.65
2023-08-11T18:32:22.677Z,23.61
2023-08-11T18:33:22.785Z,23.55
2023-08-11T18:34:22.843Z,23.48
2023-08-11T18:35:22.920Z,23.38
2023-08-11T18:36:22.999Z,23.32
2023-08-11T18:37:23.135Z,23.22
2023-08-11T18:38:23.247Z,23.17
2023-08-11T18:39:23.272Z,23.09
2023-08-11T18:40:23.291Z,23.01
2023-08-11T18:41:23.348Z,22.94
2023-08-11T18:42:23.483Z,22.88
2023-08-11T18:43:23.529Z,22.83
2023-08-11T18:44:23.662Z,22.79
2023-08-11T18:45:23.662Z,22.76
2023-08-11T18:46:23.749Z,22.73
2023-08-11T18:47:23.811Z,22.70
2023-08-11T18:48:23.986Z,22.70
2023-08-11T18:49:24.001Z,22.68
2023-08-11T18:50:24.076Z,22.67
2023-08-11T18:51:24.174Z,22.64
2023-08-11T18:52:24.221Z,22.61
2023-08-11T18:53:24.316Z,22.57
2023-08-11T18:54:24.396Z,22.49
2023-08-11T18:55:24.439Z,22.42
2023-08-11T18:56:24.570Z,22.35
2023-08-11T18:57:24.720Z,22.28
2023-08-11T18:58:24.763Z,22.24
2023-08-11T18:59:24.826Z,22.21
